Trevor, Wisconsin
Current Conditions -  °F | °C
As of 10:53 AM on Sunday 21 Dec 2014 (Local Time) from KENW Reporting Station
Haze Haze  
Wind Chill: 26°   Ceiling: 3800
Heat Index: 35°   Visibility: 6mi
Dew Point: 29°   Wind: 13mph
Humidity: 78%   Direction: 180°S
Pressure: 30.15"   Gusts: NA
Location:  42.51°N, 88.12°W
Report Text: KENW 211653Z 18011KT 6SM HZ OVC038 02/M02 A3015 RMK AO2 SLP218 T00171017
Loading
Personal Weather Stations






























Interactive Weather Map New forecast layout! Learn more

10-Day Weather Forecast

Advertisements
Track Severe Weather on mobile